メインページ
METAR-TAF:

METAR-TAF

空港 :

ウィーン, オーストリア

ウィーン国際空港

緯度: 48-07N, 経度: 016-34E, 海抜: 183m

現時点の気象観測

当レポートは15分前の04:50(UTC)に作成
の風 2kt
気温 10°C
湿度 100%
気圧 1018 hPa
視程: 0300m
高度100ft以下の雲は散在している
高度200ftの雲は散在している
高度300ftの千切れ雲あり
散在霧

METAR: LOWW 210450Z 10002KT 3500 0300S R16/P1500D R29/P1500D BCFG SCT000 SCT002 BKN003 10/10 Q1018 TEMPO FEW001 BKN002

時間: 07:05 (05:05 UTC)

予報

当レポートは1時間2分前の04:03(UTC)に作成
予報は21日の 04時(UTC)から 22日の 06時(UTC)まで有効
変向風 2kt
視程: 2000m
高度100ftの
21日の 04時(UTC)から 21日の 07時(UTC)まで一時的に
視程: 0800m
21日の 07時(UTC)から 21日の 09時(UTC)まで徐々に
南東の風 6kt
視程: 8000m
高度5000ftの雲はほとんどない
高度7000ftの千切れ雲あり
21日の 20時(UTC)から 21日の 22時(UTC)まで徐々に
視程: 0400m
高度200ftの千切れ雲あり
22日の 0530時(UTC)から
西/北西の風 10kt
視程10km以上
高度5000ftの曇り
小雨

TAF: LOWW 210403Z 2104/2206 VRB02KT 2000 BR VV001 TX13/2113Z TN08/2104Z TEMPO 2104/2107 0800 FG BECMG 2107/2109 14006KT 8000 NSW FEW050 BKN070 BECMG 2120/2122 0400 FG BKN002 FM220530 30010KT 9999 -RA OVC050

4,000以上の空港の気象観測と天気予報(METAR報とTAF報)

利用可能な観測所は地図上に黄色い丸と赤い丸で示す。

丸の上にカーソルを重ねると観測所名を参照できる。

次にクリックすると気象観測と天気予報を参照できる。

マップの切り替え:黒色「×」印の緑ボタンをクリックして拡大、「-」印の緑ボタンをクリックして縮小、緑色の三角印をクリックして隣りの地図に切り替え


METAR-TAF: